Time;durP1;ratioP1;P1;durP2;ratioP2;P2;SDS_P1;SDS_P2;PMS_P1;PMS_P2;Temp;Humidity;BMP_temperature;BMP_pressure;BME280_temperature;BME280_humidity;BME280_pressure;Samples;Min_cycle;Max_cycle;Signal;HPM_P1;HPM_P2
2022/07/11 04:22:42;;;;;;;8.63;5.20;;;;;;;15.68;92.40;100868.53;5089050;28;20362;-69
2022/07/11 04:25:08;;;;;;;11.20;6.10;;;;;;;15.68;91.89;100866.69;5089117;28;20028;-69
2022/07/11 04:27:33;;;;;;;12.85;6.18;;;;;;;15.68;91.68;100877.44;5088890;28;20182;-69
2022/07/11 04:30:01;;;;;;;8.15;5.45;;;;;;;15.64;91.90;100870.75;5089088;28;20119;-69
2022/07/11 04:32:27;;;;;;;10.73;6.15;;;;;;;15.71;92.19;100865.47;5088888;28;20032;-69
2022/07/11 04:34:52;;;;;;;7.22;5.10;;;;;;;15.67;92.34;100867.72;5088894;28;20042;-68
2022/07/11 04:37:18;;;;;;;7.40;5.55;;;;;;;15.67;92.05;100870.41;5088977;28;20044;-69
2022/07/11 04:39:46;;;;;;;9.52;6.20;;;;;;;15.73;92.35;100871.50;5088600;28;20048;-69
2022/07/11 04:42:12;;;;;;;7.28;4.68;;;;;;;15.73;91.79;100869.63;5088688;28;20047;-68
2022/07/11 04:44:37;;;;;;;6.43;4.45;;;;;;;15.75;90.70;100866.75;5088617;28;20032;-69
2022/07/11 04:47:03;;;;;;;7.70;4.50;;;;;;;15.75;91.28;100874.81;5088643;28;20040;-69
2022/07/11 04:49:29;;;;;;;8.15;4.78;;;;;;;15.76;91.74;100870.28;5088453;28;20544;-69
2022/07/11 04:51:55;;;;;;;7.22;5.20;;;;;;;15.85;91.65;100867.28;5088492;28;20028;-69
2022/07/11 04:54:22;;;;;;;7.80;5.47;;;;;;;15.92;91.45;100872.72;5088607;28;20616;-68
2022/07/11 04:56:48;;;;;;;8.48;4.95;;;;;;;15.94;91.30;100871.47;5088494;28;20040;-69
2022/07/11 04:59:13;;;;;;;8.95;5.60;;;;;;;15.99;90.21;100870.91;5088064;28;20073;-69
2022/07/11 05:01:38;;;;;;;11.88;6.68;;;;;;;16.02;89.17;100865.97;5088272;28;20047;-61
2022/07/11 05:04:04;;;;;;;10.55;7.03;;;;;;;16.09;89.08;100871.38;5088315;28;20043;-58
2022/07/11 05:06:29;;;;;;;11.25;7.25;;;;;;;16.13;86.84;100874.53;5088149;28;20037;-59
2022/07/11 05:08:55;;;;;;;7.63;4.75;;;;;;;16.17;86.91;100875.78;5087962;28;20033;-61
2022/07/11 05:11:21;;;;;;;6.95;4.80;;;;;;;16.23;86.53;100873.16;5088160;28;20028;-59
2022/07/11 05:13:46;;;;;;;7.65;4.60;;;;;;;16.27;85.49;100877.13;5086875;28;20040;-60
2022/07/11 05:16:12;;;;;;;9.05;4.63;;;;;;;16.27;83.37;100878.97;5088046;28;20393;-58
2022/07/11 05:18:38;;;;;;;7.20;4.72;;;;;;;16.34;83.22;100882.56;5087517;28;20033;-61
2022/07/11 05:21:04;;;;;;;6.38;4.47;;;;;;;16.39;83.24;100884.66;5069630;28;20533;-61
2022/07/11 05:23:29;;;;;;;7.70;4.57;;;;;;;16.41;83.51;100875.34;5087161;28;20044;-61
2022/07/11 05:25:55;;;;;;;8.55;4.88;;;;;;;16.47;82.43;100879.97;5087470;28;20097;-59
2022/07/11 05:28:20;;;;;;;5.80;4.18;;;;;;;16.49;81.91;100885.97;5087692;28;20135;-56
2022/07/11 05:30:46;;;;;;;8.60;5.10;;;;;;;16.53;81.88;100889.09;5087619;28;20511;-58
2022/07/11 05:33:11;;;;;;;7.47;4.57;;;;;;;16.60;82.63;100889.97;5077122;28;20452;-56
2022/07/11 05:35:36;;;;;;;6.72;4.85;;;;;;;16.63;80.88;100886.91;5073465;28;20561;-58
2022/07/11 05:38:02;;;;;;;13.30;4.95;;;;;;;16.70;81.43;100895.88;5073484;28;20036;-60
2022/07/11 05:40:28;;;;;;;8.82;4.85;;;;;;;16.72;81.17;100890.28;5073065;28;20109;-61
2022/07/11 05:42:53;;;;;;;10.18;5.25;;;;;;;16.79;81.43;100891.16;5074161;28;20459;-61
2022/07/11 05:45:18;;;;;;;11.40;5.68;;;;;;;16.89;81.33;100897.03;5072683;28;20079;-59
2022/07/11 05:47:44;;;;;;;11.75;5.63;;;;;;;16.94;81.30;100893.72;5074374;28;20111;-61
2022/07/11 05:50:09;;;;;;;9.63;4.57;;;;;;;17.00;81.35;100899.13;5074147;28;20136;-59
2022/07/11 05:52:35;;;;;;;6.63;5.15;;;;;;;17.06;80.33;100890.25;5074032;28;20032;-61
2022/07/11 05:55:00;;;;;;;6.57;4.63;;;;;;;17.16;80.08;100897.97;5073986;28;20101;-58
2022/07/11 05:57:26;;;;;;;7.65;5.63;;;;;;;17.18;80.38;100887.00;5073759;28;20045;-61
2022/07/11 05:59:51;;;;;;;8.77;5.70;;;;;;;17.17;79.04;100893.41;5073501;28;20040;-60
2022/07/11 06:02:18;;;;;;;8.10;5.47;;;;;;;17.26;78.69;100889.50;5073729;28;20036;-61
2022/07/11 06:04:44;;;;;;;8.65;5.47;;;;;;;17.32;79.16;100897.59;5073709;28;20052;-61
2022/07/11 06:07:11;;;;;;;8.32;5.25;;;;;;;17.44;79.11;100903.25;5073625;28;20076;-59
2022/07/11 06:09:36;;;;;;;8.45;5.20;;;;;;;17.53;77.36;100902.03;5073299;28;20032;-59
2022/07/11 06:12:02;;;;;;;8.80;5.25;;;;;;;17.59;76.50;100898.53;5073491;28;20047;-59
2022/07/11 06:14:28;;;;;;;9.40;5.38;;;;;;;17.64;77.11;100901.44;5073821;28;20607;-58
2022/07/11 06:16:53;;;;;;;8.60;5.53;;;;;;;17.79;77.54;100912.06;5073416;28;20068;-55
2022/07/11 06:19:19;;;;;;;7.55;5.30;;;;;;;17.83;75.65;100907.13;5073041;28;20036;-59
2022/07/11 06:21:44;;;;;;;7.90;6.22;;;;;;;17.88;76.23;100899.25;5071982;28;20044;-58
2022/07/11 06:24:10;;;;;;;12.75;6.00;;;;;;;17.95;76.63;100900.09;5073382;28;20121;-57
2022/07/11 06:26:36;;;;;;;7.55;5.53;;;;;;;18.00;76.32;100897.59;5073237;28;20496;-56
2022/07/11 06:29:01;;;;;;;10.82;5.68;;;;;;;18.13;74.79;100894.09;5072936;28;20477;-58
2022/07/11 06:31:27;;;;;;;9.63;5.10;;;;;;;18.21;76.67;100903.84;5072538;28;20101;-56
2022/07/11 06:33:57;;;;;;;7.97;5.25;;;;;;;18.23;76.28;100902.56;5073324;28;20033;-58
2022/07/11 06:36:23;;;;;;;7.80;4.85;;;;;;;18.31;76.64;100901.53;5073017;28;20570;-56
2022/07/11 06:38:50;;;;;;;11.15;7.03;;;;;;;18.34;74.29;100895.75;5072806;28;20031;-59
2022/07/11 06:41:15;;;;;;;10.50;5.07;;;;;;;18.30;75.28;100900.72;5072919;28;20496;-56
2022/07/11 06:43:41;;;;;;;8.70;5.43;;;;;;;18.44;74.57;100899.66;5072612;28;20117;-59
2022/07/11 06:46:06;;;;;;;8.45;5.35;;;;;;;18.48;72.94;100902.78;5072319;28;20122;-56
2022/07/11 06:48:32;;;;;;;7.43;5.40;;;;;;;18.50;72.09;100902.56;5072499;28;20036;-58
2022/07/11 06:50:57;;;;;;;7.90;5.10;;;;;;;18.54;73.81;100906.50;5072853;28;20036;-58
2022/07/11 06:53:23;;;;;;;10.77;5.28;;;;;;;18.60;73.52;100901.09;5072817;28;20048;-58
2022/07/11 06:55:48;;;;;;;7.90;5.07;;;;;;;18.75;72.12;100902.75;5072567;28;20033;-59
2022/07/11 06:58:31;;;;;;;15.10;6.38;;;;;;;18.88;72.36;100902.72;5072404;28;20448;-57
2022/07/11 07:00:58;;;;;;;9.70;4.70;;;;;;;18.97;73.89;100894.22;5072635;28;20029;-59
2022/07/11 07:03:24;;;;;;;8.57;4.70;;;;;;;18.87;70.95;100891.09;5072623;28;20024;-59
2022/07/11 07:05:49;;;;;;;7.65;5.15;;;;;;;18.97;70.33;100894.22;5072496;28;20044;-60
2022/07/11 07:08:15;;;;;;;6.10;4.30;;;;;;;19.03;71.33;100892.50;5072307;28;20044;-64
2022/07/11 07:10:40;;;;;;;7.85;4.82;;;;;;;19.14;71.54;100891.00;5072272;28;20127;-57
2022/07/11 07:13:06;;;;;;;5.88;4.75;;;;;;;19.24;71.09;100894.09;5072571;28;20090;-59
2022/07/11 07:15:31;;;;;;;7.50;4.78;;;;;;;19.27;69.29;100885.56;5072250;28;20040;-59
2022/07/11 07:17:56;;;;;;;6.97;4.45;;;;;;;19.41;68.32;100880.91;5072407;28;20044;-56
2022/07/11 07:20:22;;;;;;;7.63;4.72;;;;;;;19.55;68.97;100878.97;5071607;28;20067;-57
2022/07/11 07:22:47;;;;;;;9.52;4.22;;;;;;;19.53;67.93;100876.50;5072163;28;20044;-58
2022/07/11 07:25:13;;;;;;;6.95;4.15;;;;;;;19.65;68.98;100885.59;5072090;28;20516;-57
2022/07/11 07:27:39;;;;;;;7.45;4.00;;;;;;;19.54;65.99;100894.34;5072006;28;20055;-58
2022/07/11 07:30:05;;;;;;;5.90;4.15;;;;;;;19.75;67.24;100879.69;5071898;28;20047;-58
2022/07/11 07:32:30;;;;;;;6.55;3.85;;;;;;;19.80;67.53;100879.88;5071960;28;20094;-59
2022/07/11 07:34:56;;;;;;;9.70;4.00;;;;;;;19.94;67.99;100881.44;5071976;28;20036;-58
2022/07/11 07:37:21;;;;;;;5.22;3.83;;;;;;;19.66;66.35;100881.84;5071891;28;20056;-58
2022/07/11 07:39:47;;;;;;;4.18;3.10;;;;;;;19.84;64.49;100881.09;5071589;28;20682;-57
2022/07/11 07:42:12;;;;;;;7.13;3.42;;;;;;;20.00;65.34;100879.72;5072076;28;20563;-59
2022/07/11 07:44:38;;;;;;;4.03;2.95;;;;;;;19.98;62.48;100882.66;5071814;28;20036;-59
2022/07/11 07:47:03;;;;;;;7.20;3.30;;;;;;;20.05;62.97;100878.03;5071734;28;20097;-59
2022/07/11 07:49:28;;;;;;;9.65;3.78;;;;;;;20.23;63.11;100874.56;5070179;28;20047;-59
2022/07/11 07:51:54;;;;;;;5.10;3.63;;;;;;;20.28;64.46;100872.03;5071738;28;20032;-59
2022/07/11 07:54:19;;;;;;;7.15;3.50;;;;;;;20.36;65.65;100868.19;5071690;28;20040;-59
2022/07/11 07:56:45;;;;;;;4.55;3.50;;;;;;;20.47;63.42;100866.66;5070053;28;20409;-59
2022/07/11 07:59:10;;;;;;;6.95;4.07;;;;;;;20.46;63.68;100873.94;5071391;28;20115;-58
2022/07/11 08:01:35;;;;;;;6.20;3.72;;;;;;;20.42;64.25;100863.78;5071546;28;20043;-59
2022/07/11 08:04:05;;;;;;;4.95;3.55;;;;;;;20.44;63.12;100875.19;5071616;28;20060;-59
2022/07/11 08:06:32;;;;;;;5.82;3.72;;;;;;;20.68;63.20;100874.38;5071397;28;20031;-59
2022/07/11 08:08:58;;;;;;;8.40;3.75;;;;;;;20.65;62.93;100872.09;5071300;28;20040;-59
2022/07/11 08:11:24;;;;;;;7.50;3.88;;;;;;;20.64;63.08;100862.31;5071727;28;20053;-59
2022/07/11 08:13:50;;;;;;;8.45;4.03;;;;;;;20.65;63.24;100880.22;5071487;28;20033;-59
2022/07/11 08:16:15;;;;;;;7.47;4.10;;;;;;;20.71;62.62;100867.66;5071363;28;20039;-58
2022/07/11 08:18:41;;;;;;;6.80;3.70;;;;;;;20.89;62.34;100869.56;5071107;28;20093;-55
2022/07/11 08:21:06;;;;;;;12.25;4.22;;;;;;;21.05;62.09;100868.94;5071125;28;20056;-56
2022/07/11 08:23:32;;;;;;;6.40;4.47;;;;;;;20.96;60.34;100873.00;5071395;28;20377;-59
2022/07/11 08:25:57;;;;;;;7.15;4.63;;;;;;;21.02;60.33;100869.41;5071459;28;20453;-58
2022/07/11 08:28:23;;;;;;;8.95;3.95;;;;;;;21.18;60.54;100866.06;5071191;28;20060;-59
2022/07/11 08:30:48;;;;;;;6.90;3.90;;;;;;;21.24;58.23;100865.16;5071158;28;20493;-56
2022/07/11 08:33:14;;;;;;;5.03;3.50;;;;;;;21.50;58.99;100868.59;5071204;28;20120;-58
2022/07/11 08:35:39;;;;;;;7.57;4.18;;;;;;;21.34;57.45;100867.34;5071019;28;20060;-56
2022/07/11 08:38:05;;;;;;;4.65;3.70;;;;;;;21.73;58.80;100862.41;5070915;28;20551;-57
2022/07/11 08:40:30;;;;;;;7.38;3.92;;;;;;;21.92;57.78;100866.72;5070859;28;20048;-57
2022/07/11 08:42:59;;;;;;;7.15;3.03;;;;;;;21.87;56.56;100867.41;5071091;28;20120;-57
2022/07/11 08:45:31;;;;;;;4.60;3.30;;;;;;;21.95;56.54;100860.81;5070953;28;20036;-57
2022/07/11 08:47:58;;;;;;;5.78;3.30;;;;;;;21.68;56.84;100863.09;5071138;28;20051;-57
2022/07/11 08:50:26;;;;;;;5.72;3.72;;;;;;;21.71;57.37;100859.91;5070716;28;20112;-56
2022/07/11 08:52:57;;;;;;;5.90;3.20;;;;;;;21.68;56.89;100854.97;5071001;28;20051;-56
2022/07/11 08:55:23;;;;;;;8.57;4.38;;;;;;;21.44;56.85;100855.94;5070999;28;20123;-56
2022/07/11 08:57:49;;;;;;;5.88;3.42;;;;;;;21.58;56.83;100849.28;5071007;28;20067;-58
2022/07/11 09:00:15;;;;;;;5.93;3.03;;;;;;;21.74;57.60;100850.50;5070559;28;20036;-54
2022/07/11 09:02:42;;;;;;;5.75;3.80;;;;;;;21.82;57.38;100852.88;5070873;28;20066;-58
2022/07/11 09:05:08;;;;;;;5.28;3.17;;;;;;;21.86;58.17;100854.09;5070818;28;20068;-55
2022/07/11 09:07:47;;;;;;;7.10;3.55;;;;;;;21.93;57.19;100850.19;5071355;28;20040;-58
2022/07/11 09:10:17;;;;;;;4.32;3.17;;;;;;;21.95;57.06;100853.50;5074391;28;20611;-60
2022/07/11 09:13:04;;;;;;;6.18;3.80;;;;;;;21.87;56.11;100853.84;5073175;28;20082;-59
2022/07/11 09:15:48;;;;;;;3.83;3.20;;;;;;;21.85;57.18;100864.09;5074386;28;20052;-60
2022/07/11 09:18:32;;;;;;;6.15;3.65;;;;;;;21.96;58.30;100862.44;5074388;28;20146;-59
2022/07/11 09:26:50;;;;;;;5.47;3.60;;;;;;;21.92;58.28;100862.13;5074381;28;20002;-58
2022/07/11 09:29:19;;;;;;;4.60;3.37;;;;;;;22.08;57.07;100860.59;5073622;28;20040;-55
2022/07/11 09:31:45;;;;;;;6.03;3.40;;;;;;;22.39;58.44;100864.06;5074214;28;20097;-53
2022/07/11 09:34:13;;;;;;;5.65;3.55;;;;;;;22.36;61.06;100862.63;5074043;28;20040;-53
2022/07/11 09:36:38;;;;;;;6.85;3.53;;;;;;;22.52;57.08;100865.72;5074083;28;20135;-59
2022/07/11 09:39:05;;;;;;;5.93;3.70;;;;;;;22.57;57.16;100871.25;5073809;28;20111;-59
2022/07/11 09:41:36;;;;;;;4.50;3.20;;;;;;;22.44;54.98;100862.31;5073948;28;20051;-59
2022/07/11 09:44:18;;;;;;;5.47;3.63;;;;;;;22.45;54.84;100857.69;5073963;28;20040;-58
2022/07/11 09:46:49;;;;;;;6.05;3.53;;;;;;;22.35;57.22;100858.28;5073897;28;20040;-60
2022/07/11 09:49:16;;;;;;;7.88;3.45;;;;;;;22.56;57.69;100856.88;5073627;28;20048;-58
2022/07/11 09:51:43;;;;;;;5.95;3.90;;;;;;;22.86;55.30;100851.28;5074001;28;20033;-58
2022/07/11 09:54:10;;;;;;;4.78;3.30;;;;;;;22.72;54.13;100855.31;5074026;28;20032;-59
2022/07/11 09:56:45;;;;;;;7.32;3.90;;;;;;;22.81;53.77;100850.31;5073759;28;20127;-60
2022/07/11 09:59:12;;;;;;;4.50;3.40;;;;;;;22.93;52.90;100862.84;5073408;28;20037;-58
2022/07/11 10:01:39;;;;;;;5.30;3.05;;;;;;;22.78;52.79;100858.97;5073607;28;20044;-58
2022/07/11 10:04:09;;;;;;;4.20;3.10;;;;;;;23.19;53.42;100856.03;5073739;28;20024;-59
2022/07/11 10:06:36;;;;;;;3.78;3.20;;;;;;;23.51;53.02;100858.25;5073594;28;20032;-59
2022/07/11 10:09:04;;;;;;;4.05;2.88;;;;;;;23.73;50.89;100847.53;5073332;28;20044;-59
2022/07/11 10:11:31;;;;;;;5.05;3.20;;;;;;;23.95;52.02;100851.19;5073458;28;20089;-60
2022/07/11 10:13:59;;;;;;;4.90;3.17;;;;;;;24.00;51.72;100847.72;5073623;28;20052;-60
2022/07/11 10:16:36;;;;;;;3.65;2.97;;;;;;;24.40;51.27;100850.28;5073335;28;20025;-60
2022/07/11 10:19:10;;;;;;;;;;;;;;;24.98;50.87;100851.59;5073458;28;20104;-60
2022/07/11 10:21:56;;;;;;;3.47;2.70;;;;;;;25.47;47.84;100848.88;5073141;28;19956;-60
2022/07/11 10:24:28;;;;;;;5.38;2.85;;;;;;;25.35;47.62;100845.47;5073341;28;20520;-60
2022/07/11 10:27:07;;;;;;;4.28;2.75;;;;;;;24.61;46.47;100841.31;5073147;28;20584;-60
2022/07/11 10:29:45;;;;;;;4.22;2.88;;;;;;;24.61;47.98;100848.66;5072853;28;20426;-60
2022/07/11 10:32:11;;;;;;;4.20;3.13;;;;;;;24.64;48.47;100839.97;5073805;28;20162;-58
2022/07/11 10:34:36;;;;;;;4.10;2.67;;;;;;;25.00;47.60;100837.72;5073239;28;20504;-56
2022/07/11 10:37:07;;;;;;;3.22;2.70;;;;;;;25.74;46.37;100848.06;5073166;28;20040;-60
2022/07/11 10:39:34;;;;;;;4.00;2.55;;;;;;;26.41;45.55;100847.53;5072834;28;20123;-60
2022/07/11 10:42:05;;;;;;;3.00;2.15;;;;;;;26.72;42.58;100841.13;5072985;28;20036;-59
2022/07/11 10:44:51;;;;;;;4.78;2.38;;;;;;;26.42;42.45;100841.00;5073019;28;20405;-60
2022/07/11 10:47:42;;;;;;;2.80;2.38;;;;;;;25.71;44.29;100833.84;5072878;28;20389;-59
2022/07/11 10:50:35;;;;;;;3.05;2.33;;;;;;;26.02;43.65;100838.75;5072431;28;20090;-60
2022/07/11 10:53:07;;;;;;;3.85;2.22;;;;;;;26.41;42.64;100839.34;5072801;28;20075;-60
2022/07/11 10:55:42;;;;;;;3.13;2.33;;;;;;;26.20;44.06;100841.06;5072693;28;20393;-58
2022/07/11 10:58:24;;;;;;;4.13;2.40;;;;;;;25.19;43.65;100840.97;5072519;28;20035;-58
2022/07/11 11:01:09;;;;;;;4.88;2.40;;;;;;;26.35;42.92;100841.19;5072689;28;20032;-59
2022/07/11 11:03:34;;;;;;;2.72;2.10;;;;;;;26.63;42.57;100831.00;5072728;28;20079;-60
2022/07/11 11:06:00;;;;;;;3.58;2.20;;;;;;;26.73;40.76;100837.34;5072439;28;20135;-60
2022/07/11 11:08:31;;;;;;;3.55;2.30;;;;;;;27.10;43.03;100835.59;5072227;28;20072;-60
2022/07/11 11:10:57;;;;;;;5.82;2.00;;;;;;;26.69;42.82;100838.94;5072457;28;20029;-60
2022/07/11 11:13:23;;;;;;;2.00;1.63;;;;;;;26.41;41.81;100825.69;5071139;28;20024;-60
2022/07/11 11:15:52;;;;;;;2.45;2.00;;;;;;;26.36;42.23;100834.66;5072296;28;20509;-59
2022/07/11 11:18:23;;;;;;;2.80;1.80;;;;;;;26.59;41.91;100830.69;5072162;28;20040;-60
2022/07/11 11:21:07;;;;;;;4.63;1.98;;;;;;;27.22;41.81;100826.06;5072228;28;20417;-60
2022/07/11 11:23:37;;;;;;;2.10;1.75;;;;;;;27.54;40.63;100825.00;5072375;28;20028;-60
2022/07/11 11:26:06;;;;;;;3.08;1.92;;;;;;;27.46;41.56;100828.28;5072506;28;20335;-59
2022/07/11 11:28:32;;;;;;;2.78;2.17;;;;;;;27.08;42.74;100814.00;5071790;28;20060;-60
2022/07/11 11:31:01;;;;;;;2.65;2.05;;;;;;;26.88;41.89;100814.72;5071545;28;20032;-61
2022/07/11 11:33:35;;;;;;;3.03;1.70;;;;;;;27.07;41.51;100817.81;5072166;28;20426;-60
2022/07/11 11:36:06;;;;;;;2.65;1.60;;;;;;;26.59;40.66;100811.56;5071976;28;20040;-60
2022/07/11 11:38:50;;;;;;;2.85;1.95;;;;;;;27.40;42.05;100815.69;5071757;28;20064;-60
2022/07/11 11:41:30;;;;;;;3.53;1.60;;;;;;;27.63;42.33;100804.22;5071620;28;20044;-61
2022/07/11 11:43:57;;;;;;;2.55;1.52;;;;;;;28.19;39.38;100803.41;5071868;28;20074;-61
2022/07/11 11:46:30;;;;;;;2.45;1.60;;;;;;;28.19;39.28;100804.22;5071841;28;20458;-61
2022/07/11 11:48:57;;;;;;;2.33;1.80;;;;;;;27.43;39.95;100815.16;5071572;28;20107;-61
2022/07/11 11:51:23;;;;;;;;;;;;;;;27.29;40.83;100809.38;5072238;28;20082;-61
2022/07/11 11:53:52;;;;;;;3.07;1.87;;;;;;;27.49;40.59;100820.34;5071808;28;20344;-61
2022/07/11 11:56:36;;;;;;;1.90;1.70;;;;;;;27.29;39.77;100810.19;5071693;28;20032;-60
2022/07/11 11:59:07;;;;;;;4.93;1.58;;;;;;;28.17;38.95;100811.03;5071440;28;20480;-60
2022/07/11 12:01:39;;;;;;;1.77;1.60;;;;;;;28.55;38.09;100806.88;5071680;28;20540;-59
2022/07/11 12:04:16;;;;;;;1.65;1.55;;;;;;;28.34;38.73;100804.19;5071581;28;20048;-61
2022/07/11 12:06:46;;;;;;;2.08;1.40;;;;;;;27.98;40.02;100805.34;5071655;28;20485;-61
2022/07/11 12:09:16;;;;;;;4.25;1.50;;;;;;;27.77;39.34;100797.13;5071307;28;20099;-61
2022/07/11 12:11:44;;;;;;;3.17;1.45;;;;;;;27.73;41.53;100800.69;5071495;28;20044;-60
2022/07/11 12:14:12;;;;;;;3.65;2.00;;;;;;;26.95;41.83;100803.53;5071539;28;20040;-60
2022/07/11 12:16:43;;;;;;;1.40;1.30;;;;;;;27.08;42.04;100807.69;5071408;28;20379;-60
2022/07/11 12:19:14;;;;;;;4.63;2.20;;;;;;;27.34;41.88;100805.84;5071172;28;20032;-61
2022/07/11 12:21:46;;;;;;;3.35;1.40;;;;;;;27.33;41.38;100794.09;5071192;28;20052;-61
2022/07/11 12:24:16;;;;;;;9.18;1.80;;;;;;;27.34;41.58;100793.00;5071364;28;20414;-61
2022/07/11 12:26:43;;;;;;;2.00;1.40;;;;;;;27.44;41.82;100798.44;5071359;28;20032;-60
2022/07/11 12:29:16;;;;;;;2.55;1.55;;;;;;;27.10;42.50;100789.91;5071177;28;20063;-60
2022/07/11 12:31:49;;;;;;;1.95;1.65;;;;;;;27.11;43.07;100794.28;5071646;28;20033;-61
2022/07/11 12:34:20;;;;;;;4.70;1.80;;;;;;;27.58;40.81;100787.78;5071703;28;20622;-60
2022/07/11 12:36:46;;;;;;;2.30;1.48;;;;;;;28.35;39.50;100786.66;5071201;28;20107;-61
2022/07/11 12:39:26;;;;;;;3.23;1.50;;;;;;;28.92;40.27;100788.09;5070965;28;20589;-61
2022/07/11 12:41:53;;;;;;;3.22;1.30;;;;;;;29.52;36.51;100777.03;5071152;28;20040;-61
2022/07/11 12:47:10;;;;;;;1.77;1.38;;;;;;;29.57;36.19;100787.97;5075502;28;20089;-61
2022/07/11 12:49:36;;;;;;;3.50;1.38;;;;;;;29.32;36.53;100780.72;5074911;28;20032;-61
2022/07/11 12:52:02;;;;;;;4.30;1.70;;;;;;;28.57;39.79;100774.56;5073816;28;20033;-60
2022/07/11 12:54:33;;;;;;;3.63;1.33;;;;;;;28.46;38.94;100772.94;5075020;28;20063;-59
2022/07/11 12:57:03;;;;;;;1.42;1.33;;;;;;;28.07;39.56;100770.81;5074928;28;20383;-61
2022/07/11 12:59:33;;;;;;;3.45;1.90;;;;;;;28.00;40.69;100775.78;5074798;28;20411;-61
2022/07/11 13:02:06;;;;;;;4.85;1.60;;;;;;;27.88;40.40;100772.50;5074965;28;20478;-60
2022/07/11 13:04:39;;;;;;;5.20;1.60;;;;;;;27.38;40.83;100774.91;5074785;28;20386;-61
2022/07/11 13:10:22;;;;;;;2.15;1.30;;;;;;;27.76;39.72;100764.56;5074490;28;20497;-60
2022/07/11 13:12:50;;;;;;;2.33;1.65;;;;;;;28.19;40.33;100765.88;5074643;28;20041;-61
2022/07/11 13:15:17;;;;;;;1.52;1.20;;;;;;;27.68;40.31;100762.34;5074391;28;20062;-61
2022/07/11 13:17:53;;;;;;;2.30;1.70;;;;;;;27.95;40.76;100762.09;5074589;28;20031;-61
2022/07/11 13:20:22;;;;;;;2.22;1.60;;;;;;;28.08;39.79;100756.03;5074179;28;20170;-61
2022/07/11 13:22:49;;;;;;;1.80;1.40;;;;;;;28.03;40.25;100762.34;5074644;28;20490;-61
2022/07/11 13:25:17;;;;;;;3.03;1.45;;;;;;;27.64;41.88;100764.00;5074289;28;20027;-61
2022/07/11 13:27:43;;;;;;;3.03;1.38;;;;;;;27.75;40.86;100761.00;5074410;28;20052;-60
2022/07/11 13:30:16;;;;;;;3.63;1.50;;;;;;;27.92;40.78;100759.91;5074135;28;20029;-60
2022/07/11 13:32:44;;;;;;;1.92;1.25;;;;;;;27.84;39.60;100762.13;5074377;28;20091;-61
2022/07/11 13:35:10;;;;;;;2.35;1.33;;;;;;;27.99;40.35;100763.19;5074323;28;20068;-61
2022/07/11 13:37:38;;;;;;;3.75;1.40;;;;;;;27.63;40.02;100765.91;5074283;28;20036;-60
2022/07/11 13:40:05;;;;;;;2.85;1.67;;;;;;;27.38;41.46;100765.91;5073852;28;20032;-61
2022/07/11 13:42:32;;;;;;;;;;;;;;;27.26;41.80;100771.66;5074653;28;20062;-60
2022/07/11 13:45:00;;;;;;;3.28;1.35;;;;;;;27.01;43.26;100769.66;5074192;28;19958;-61
2022/07/11 13:47:25;;;;;;;2.70;1.40;;;;;;;27.13;40.69;100770.25;5073963;28;20102;-59
2022/07/11 13:49:51;;;;;;;2.03;1.65;;;;;;;27.00;40.72;100763.38;5073789;28;20037;-60
2022/07/11 13:52:16;;;;;;;3.88;1.98;;;;;;;26.86;41.40;100769.59;5073815;28;20041;-59
2022/07/11 13:54:41;;;;;;;1.58;1.20;;;;;;;26.78;41.04;100771.75;5073413;28;20054;-60
2022/07/11 13:57:07;;;;;;;3.75;1.50;;;;;;;26.81;41.45;100764.13;5073832;28;20099;-58
2022/07/11 13:59:32;;;;;;;1.90;1.65;;;;;;;26.69;40.90;100770.66;5073543;28;20447;-58
2022/07/11 14:01:58;;;;;;;4.75;2.95;;;;;;;26.51;41.00;100773.84;5073861;28;20561;-59
2022/07/11 14:04:23;;;;;;;3.03;1.85;;;;;;;25.69;42.70;100769.72;5073739;28;20082;-57
2022/07/11 14:06:49;;;;;;;4.30;2.65;;;;;;;25.98;43.05;100775.69;5073646;28;20405;-60
2022/07/11 14:09:14;;;;;;;3.10;1.40;;;;;;;25.97;44.07;100768.59;5073256;28;20051;-60
2022/07/11 14:11:40;;;;;;;10.85;1.58;;;;;;;26.11;43.89;100772.50;5073614;28;20036;-59
2022/07/11 14:14:06;;;;;;;2.03;1.48;;;;;;;25.96;43.24;100769.69;5073649;28;20481;-60
2022/07/11 14:16:31;;;;;;;2.03;1.65;;;;;;;25.76;43.49;100766.81;5073377;28;20406;-61
2022/07/11 14:18:57;;;;;;;8.20;2.47;;;;;;;25.82;43.34;100772.06;5073472;28;20039;-60
2022/07/11 14:21:22;;;;;;;1.92;1.40;;;;;;;25.83;43.30;100764.69;5073202;28;20032;-60
2022/07/11 14:23:47;;;;;;;1.75;1.50;;;;;;;26.08;45.60;100756.66;5073306;28;20048;-60
2022/07/11 14:26:13;;;;;;;1.70;1.60;;;;;;;26.01;43.47;100760.69;5073510;28;20140;-60
2022/07/11 14:28:39;;;;;;;2.90;1.77;;;;;;;26.02;43.87;100760.44;5073074;28;20036;-61
2022/07/11 14:31:04;;;;;;;4.05;2.00;;;;;;;26.03;42.45;100756.63;5073707;28;20083;-60
2022/07/11 14:33:30;;;;;;;3.92;1.70;;;;;;;26.20;42.36;100753.72;5073345;28;20127;-60
2022/07/11 14:35:55;;;;;;;2.63;1.90;;;;;;;26.02;43.17;100755.00;5073182;28;20424;-60
2022/07/11 14:38:20;;;;;;;2.30;1.80;;;;;;;26.00;43.82;100754.41;5072700;28;20059;-59
2022/07/11 14:40:46;;;;;;;2.13;1.90;;;;;;;25.90;43.72;100746.19;5073154;28;20559;-60
2022/07/11 14:43:11;;;;;;;2.45;1.90;;;;;;;26.03;44.52;100747.63;5071954;28;20047;-60
2022/07/11 14:45:37;;;;;;;3.67;2.03;;;;;;;25.79;43.71;100745.28;5072806;28;20094;-60
2022/07/11 14:48:02;;;;;;;5.85;1.90;;;;;;;25.85;43.47;100754.31;5072782;28;20040;-60
2022/07/11 14:50:28;;;;;;;2.22;1.90;;;;;;;26.02;44.36;100744.06;5072555;28;20394;-60
2022/07/11 14:52:54;;;;;;;3.75;1.50;;;;;;;26.16;42.64;100753.44;5072548;28;20482;-60
2022/07/11 14:55:19;;;;;;;2.10;1.67;;;;;;;25.95;43.54;100743.47;5072663;28;20044;-60
2022/07/11 14:57:44;;;;;;;4.28;1.98;;;;;;;25.68;43.65;100741.59;5072718;28;20512;-60
2022/07/11 15:00:10;;;;;;;2.78;2.30;;;;;;;25.81;43.80;100745.81;5072346;28;20033;-60
2022/07/11 15:05:20;;;;;;;2.00;1.80;;;;;;;25.66;44.13;100741.06;5071542;28;20123;-60
2022/07/11 15:13:14;;;;;;;3.92;2.45;;;;;;;25.46;44.72;100742.81;5072409;28;20466;-58
2022/07/11 15:15:40;;;;;;;4.43;2.47;;;;;;;25.44;45.34;100746.63;5072127;28;20099;-59
2022/07/11 15:18:05;;;;;;;3.95;2.20;;;;;;;25.39;45.28;100753.94;5072345;28;20576;-60
2022/07/11 15:20:31;;;;;;;3.85;2.30;;;;;;;25.29;45.07;100749.19;5072121;28;20040;-60
2022/07/11 15:22:56;;;;;;;3.70;2.45;;;;;;;25.25;45.72;100750.81;5072147;28;20040;-60
2022/07/11 15:25:23;;;;;;;3.35;2.38;;;;;;;25.09;45.90;100754.44;5072220;28;20046;-59
2022/07/11 15:27:48;;;;;;;4.90;2.35;;;;;;;24.99;45.87;100755.16;5072155;28;20147;-60
2022/07/11 15:30:16;;;;;;;4.47;2.70;;;;;;;25.04;46.00;100757.97;5071830;28;20115;-59
2022/07/11 15:32:43;;;;;;;4.60;2.75;;;;;;;24.98;46.25;100753.50;5072024;28;20040;-60
2022/07/11 15:35:09;;;;;;;6.13;2.70;;;;;;;25.09;45.99;100755.25;5072034;28;20043;-60
2022/07/11 15:37:34;;;;;;;2.80;2.38;;;;;;;25.12;45.75;100749.31;5071936;28;20115;-59
2022/07/11 15:40:00;;;;;;;3.35;2.75;;;;;;;25.06;45.10;100747.63;5071783;28;20545;-60
2022/07/11 15:42:25;;;;;;;3.17;2.40;;;;;;;25.17;45.26;100749.38;5071817;28;20039;-60
2022/07/11 15:44:51;;;;;;;2.65;2.35;;;;;;;25.15;44.65;100746.06;5071840;28;20041;-60
2022/07/11 15:47:16;;;;;;;2.88;2.33;;;;;;;25.03;44.37;100745.34;5071681;28;20036;-58
2022/07/11 15:49:42;;;;;;;4.57;2.45;;;;;;;25.07;45.37;100751.16;5071383;28;20028;-60
2022/07/11 15:52:08;;;;;;;3.63;2.72;;;;;;;25.04;45.54;100741.63;5071822;28;20044;-60
2022/07/11 15:54:33;;;;;;;3.67;2.50;;;;;;;24.87;45.54;100743.56;5072265;28;20048;-60
2022/07/11 15:56:59;;;;;;;2.63;2.42;;;;;;;25.07;45.25;100745.72;5071802;28;20037;-60
2022/07/11 15:59:24;;;;;;;4.70;2.75;;;;;;;25.07;45.25;100737.53;5070272;28;20377;-65
2022/07/11 16:01:49;;;;;;;4.63;3.05;;;;;;;25.11;45.18;100742.22;5071621;28;20032;-58
2022/07/11 16:04:15;;;;;;;4.13;2.63;;;;;;;25.07;45.17;100723.91;5071523;28;20048;-60
2022/07/11 16:06:40;;;;;;;9.45;2.85;;;;;;;25.17;44.78;100735.75;5071568;28;20052;-61
2022/07/11 16:09:06;;;;;;;3.00;2.45;;;;;;;25.23;45.19;100728.41;5071320;28;20032;-58